Terminal Aerodrome Forecast
Issued by NWS

Home | Current Version | Previous Version | Text Only | Print | Product List | Glossary On
Versions: 1 2 3 4 5 6 7 8 9 10 11 12 13 14 15 16 17 18 19 20 21
000
FTUS44 KMAF 040500
TAFINK
TAF
KINK 040520Z 0406/0506 12006KT P6SM OVC080
      TEMPO 0406/0410 -SHRA
     FM041600 03015G25KT 5SM BR OVC010
     FM041800 04018G28KT 3SM -RA BR OVC008
     FM042200 04015G25KT 2SM -RASN BR OVC006
     FM050200 04015G25KT 2SM -SN BR OVC006=

USA.gov is the U.S. government's official web portal to all federal, state and local government web resources and services.